Time;durP1;ratioP1;P1;durP2;ratioP2;P2;SDS_P1;SDS_P2;PMS_P1;PMS_P2;Temp;Humidity;BMP_temperature;BMP_pressure;BME280_temperature;BME280_humidity;BME280_pressure;Samples;Min_cycle;Max_cycle;Signal;HPM_P1;HPM_P2
2021/09/11 00:00:33;;;;;;;9.23;6.10;;;19.70;99.90;;;;;;5013414;28;20104;-78
2021/09/11 00:03:01;;;;;;;8.65;6.10;;;19.70;99.90;;;;;;5015531;28;20419;-77
2021/09/11 00:05:30;;;;;;;9.80;7.00;;;19.60;99.90;;;;;;5015518;28;20049;-78
2021/09/11 00:07:57;;;;;;;13.50;7.18;;;19.50;99.90;;;;;;5015147;28;20136;-77
2021/09/11 00:10:23;;;;;;;6.70;5.60;;;19.50;99.90;;;;;;5015625;28;20137;-78
2021/09/11 00:12:52;;;;;;;6.80;6.10;;;19.50;99.90;;;;;;5015283;28;20050;-78
2021/09/11 00:15:19;;;;;;;6.15;5.55;;;19.40;99.90;;;;;;5015205;28;20474;-78
2021/09/11 00:17:48;;;;;;;6.88;5.72;;;19.40;99.90;;;;;;5015592;28;20052;-78
2021/09/11 00:20:15;;;;;;;7.25;6.35;;;19.30;99.90;;;;;;5015038;28;20050;-78
2021/09/11 00:22:44;;;;;;;7.30;5.97;;;19.30;99.90;;;;;;5015230;28;20495;-78
2021/09/11 00:25:11;;;;;;;8.25;6.20;;;19.30;99.90;;;;;;5015071;28;20052;-76
2021/09/11 00:27:38;;;;;;;6.82;6.03;;;19.30;99.90;;;;;;5015046;28;20060;-77
2021/09/11 00:30:06;;;;;;;7.90;6.30;;;19.30;99.90;;;;;;5014807;28;20505;-79
2021/09/11 00:32:34;;;;;;;8.48;6.00;;;19.30;99.90;;;;;;5014800;28;20141;-77
2021/09/11 00:35:01;;;;;;;6.82;5.82;;;19.40;99.90;;;;;;5015077;28;20065;-77
2021/09/11 00:37:28;;;;;;;7.07;5.82;;;19.40;99.90;;;;;;5015190;28;20456;-78
2021/09/11 00:39:57;;;;;;;7.70;6.30;;;19.40;99.90;;;;;;5015928;28;20073;-78
2021/09/11 00:42:23;;;;;;;7.60;6.15;;;19.50;99.90;;;;;;5015951;28;20050;-78
2021/09/11 00:44:50;;;;;;;6.78;6.10;;;19.50;99.90;;;;;;5015242;28;20141;-78
2021/09/11 00:47:17;;;;;;;8.77;6.25;;;19.50;99.90;;;;;;5013987;28;20084;-77
2021/09/11 00:49:44;;;;;;;6.88;6.18;;;19.50;99.90;;;;;;5014556;28;20084;-77
2021/09/11 00:52:11;;;;;;;8.40;6.35;;;19.50;99.90;;;;;;5014728;28;20049;-78
2021/09/11 00:54:39;;;;;;;8.48;6.45;;;19.60;99.90;;;;;;5014635;28;20133;-78
2021/09/11 00:57:08;;;;;;;7.95;6.80;;;19.60;99.90;;;;;;5015542;28;20140;-77
2021/09/11 00:59:36;;;;;;;7.53;6.53;;;19.60;99.90;;;;;;5013928;28;20132;-78
2021/09/11 01:02:02;;;;;;;9.50;7.00;;;19.50;99.90;;;;;;5014246;28;20050;-77
2021/09/11 01:04:29;;;;;;;10.23;7.93;;;19.50;99.90;;;;;;5014919;28;20089;-78
2021/09/11 01:06:58;;;;;;;10.90;6.75;;;19.50;99.90;;;;;;5014526;28;20470;-77
2021/09/11 01:09:25;;;;;;;10.35;7.50;;;19.60;99.90;;;;;;5014247;28;20054;-78
2021/09/11 01:11:52;;;;;;;10.80;7.82;;;19.50;99.90;;;;;;5012786;28;20077;-77
2021/09/11 01:14:20;;;;;;;11.60;7.80;;;19.60;99.90;;;;;;5013480;28;20159;-78
2021/09/11 01:16:47;;;;;;;9.35;7.60;;;19.70;99.90;;;;;;5013534;28;20046;-78
2021/09/11 01:19:14;;;;;;;12.73;8.23;;;19.70;99.90;;;;;;5013748;28;20085;-78
2021/09/11 01:21:41;;;;;;;10.52;8.38;;;19.80;99.90;;;;;;5013464;28;20453;-77
2021/09/11 01:24:11;;;;;;;11.52;9.27;;;19.80;99.90;;;;;;5013430;28;20133;-77
2021/09/11 01:26:38;;;;;;;12.75;9.13;;;19.80;99.90;;;;;;5013110;28;20142;-78
2021/09/11 01:29:09;;;;;;;15.18;10.48;;;19.70;99.90;;;;;;5014057;28;20050;-79
2021/09/11 01:31:36;;;;;;;13.35;11.18;;;19.70;99.90;;;;;;5013695;28;20086;-79
2021/09/11 01:34:04;;;;;;;14.13;10.35;;;19.70;99.90;;;;;;5013475;28;20483;-78
2021/09/11 01:36:30;;;;;;;13.10;10.93;;;19.70;99.90;;;;;;5014180;28;20140;-78
2021/09/11 01:38:57;;;;;;;12.40;8.40;;;19.70;99.90;;;;;;5013970;28;20423;-79
2021/09/11 01:41:26;;;;;;;9.15;8.23;;;19.70;99.90;;;;;;5013481;28;20129;-77
2021/09/11 01:43:52;;;;;;;9.88;7.97;;;19.70;99.90;;;;;;5013298;28;20050;-79
2021/09/11 01:46:19;;;;;;;12.13;9.15;;;19.60;99.90;;;;;;5013458;28;20258;-81
2021/09/11 01:48:46;;;;;;;10.80;9.35;;;19.60;99.90;;;;;;5013569;28;20050;-78
2021/09/11 01:51:13;;;;;;;11.85;9.30;;;19.50;99.90;;;;;;5014416;28;20132;-78
2021/09/11 01:53:40;;;;;;;14.80;12.23;;;19.60;99.90;;;;;;5012652;28;20547;-77
2021/09/11 01:56:07;;;;;;;17.20;11.93;;;19.60;99.90;;;;;;5012740;28;20144;-78
2021/09/11 01:58:35;;;;;;;20.50;11.45;;;19.60;99.90;;;;;;5013097;28;20082;-77
2021/09/11 02:01:02;;;;;;;16.10;12.13;;;19.60;99.90;;;;;;5012793;28;20144;-78
2021/09/11 02:03:29;;;;;;;18.45;13.80;;;19.70;99.90;;;;;;5013945;28;20060;-79
2021/09/11 02:05:56;;;;;;;16.08;12.88;;;19.70;99.90;;;;;;5013473;28;20152;-79
2021/09/11 02:08:22;;;;;;;15.73;12.95;;;19.80;99.90;;;;;;5013706;28;20056;-79
2021/09/11 02:10:49;;;;;;;15.57;13.23;;;19.80;99.90;;;;;;5013348;28;20511;-78
2021/09/11 02:13:16;;;;;;;16.08;13.63;;;19.80;99.90;;;;;;5013371;28;20487;-77
2021/09/11 02:15:44;;;;;;;16.73;13.80;;;19.80;99.90;;;;;;5013957;28;20129;-77
2021/09/11 02:18:11;;;;;;;18.42;13.73;;;19.90;99.90;;;;;;5014067;28;20048;-77
2021/09/11 02:20:39;;;;;;;16.75;13.00;;;19.90;99.90;;;;;;5012809;28;20053;-77
2021/09/11 02:23:06;;;;;;;15.30;13.05;;;19.90;99.90;;;;;;5013409;28;20133;-77
2021/09/11 02:25:33;;;;;;;15.45;13.05;;;19.90;99.90;;;;;;5014026;28;20089;-77
2021/09/11 02:27:59;;;;;;;15.70;13.70;;;20.00;99.90;;;;;;5014012;28;20347;-78
2021/09/11 02:30:26;;;;;;;16.55;13.00;;;20.00;99.90;;;;;;5013783;28;20056;-78
2021/09/11 02:32:54;;;;;;;15.43;12.52;;;20.00;99.90;;;;;;5013545;28;20072;-76
2021/09/11 02:35:21;;;;;;;17.30;13.77;;;20.00;99.90;;;;;;5013592;28;20148;-78
2021/09/11 02:37:48;;;;;;;17.25;14.05;;;20.00;99.90;;;;;;5013517;28;20439;-79
2021/09/11 02:40:15;;;;;;;17.80;14.20;;;20.10;99.90;;;;;;5013551;28;20118;-79
2021/09/11 02:42:42;;;;;;;17.40;14.20;;;20.00;99.90;;;;;;5013332;28;20390;-78
2021/09/11 02:45:10;;;;;;;17.05;14.50;;;20.00;99.90;;;;;;5012467;28;20138;-79
2021/09/11 02:47:37;;;;;;;19.75;14.80;;;20.00;99.90;;;;;;5012375;28;20049;-80
2021/09/11 02:50:07;;;;;;;19.60;15.23;;;20.00;99.90;;;;;;5011985;28;20089;-78
2021/09/11 02:52:34;;;;;;;17.13;14.57;;;20.10;99.90;;;;;;5012217;28;20350;-77
2021/09/11 02:55:00;;;;;;;22.38;18.50;;;20.10;99.90;;;;;;5011880;28;20144;-77
2021/09/11 02:57:27;;;;;;;27.92;23.20;;;20.00;99.90;;;;;;5012168;28;20133;-78
2021/09/11 02:59:54;;;;;;;24.10;19.92;;;19.90;99.90;;;;;;5011502;28;20078;-78
2021/09/11 03:02:21;;;;;;;23.40;19.17;;;19.90;99.90;;;;;;5011863;28;20045;-78
2021/09/11 03:04:48;;;;;;;25.83;19.45;;;19.90;99.90;;;;;;5011658;28;20133;-78
2021/09/11 03:07:16;;;;;;;26.75;22.20;;;19.90;99.90;;;;;;5012015;28;20085;-78
2021/09/11 03:09:43;;;;;;;31.90;24.35;;;19.90;99.90;;;;;;5011643;28;20085;-78
2021/09/11 03:12:10;;;;;;;34.15;25.35;;;19.90;99.90;;;;;;5011731;28;20523;-78
2021/09/11 03:14:36;;;;;;;34.70;27.08;;;19.90;99.90;;;;;;5011602;28;20062;-79
2021/09/11 03:17:04;;;;;;;29.77;25.35;;;19.90;99.90;;;;;;5011530;28;20049;-78
2021/09/11 03:19:32;;;;;;;36.03;26.08;;;19.80;99.90;;;;;;5011776;28;20605;-78
2021/09/11 03:21:59;;;;;;;32.53;25.85;;;19.80;99.90;;;;;;5011413;28;20092;-80
2021/09/11 03:24:27;;;;;;;32.95;24.92;;;19.80;99.90;;;;;;5011531;28;20045;-79
2021/09/11 03:26:54;;;;;;;33.67;26.67;;;19.80;99.90;;;;;;5011717;28;20136;-78
2021/09/11 03:29:21;;;;;;;33.85;26.40;;;19.70;99.90;;;;;;5011550;28;20137;-77
2021/09/11 03:31:48;;;;;;;34.72;27.23;;;19.70;99.90;;;;;;5011898;28;20074;-78
2021/09/11 03:34:15;;;;;;;34.95;25.77;;;19.70;99.90;;;;;;5012053;28;20132;-78
2021/09/11 03:36:41;;;;;;;32.80;25.65;;;19.70;99.90;;;;;;5015925;28;20132;-78
2021/09/11 03:39:08;;;;;;;27.35;22.13;;;19.60;99.90;;;;;;5016036;28;20136;-79
2021/09/11 03:41:37;;;;;;;24.25;18.25;;;19.60;99.90;;;;;;5015536;28;20060;-79
2021/09/11 03:44:04;;;;;;;20.58;17.63;;;19.50;99.90;;;;;;5016062;28;20064;-78
2021/09/11 03:46:31;;;;;;;20.42;16.25;;;19.40;99.90;;;;;;5016335;28;20056;-79
2021/09/11 03:48:58;;;;;;;20.48;15.80;;;19.40;99.90;;;;;;5016249;28;20136;-78
2021/09/11 03:51:25;;;;;;;20.88;15.38;;;19.40;99.90;;;;;;5016337;28;20050;-80
2021/09/11 03:53:52;;;;;;;18.80;14.60;;;19.30;99.90;;;;;;5015614;28;20076;-78
2021/09/11 03:56:18;;;;;;;19.20;14.85;;;19.40;99.90;;;;;;5015380;28;20085;-77
2021/09/11 03:58:47;;;;;;;16.95;14.02;;;19.40;99.90;;;;;;5015841;28;20077;-77
2021/09/11 04:01:13;;;;;;;17.75;14.13;;;19.40;99.90;;;;;;5015609;28;20096;-77
2021/09/11 04:03:40;;;;;;;16.13;14.40;;;19.30;99.90;;;;;;5015677;28;20056;-78
2021/09/11 04:06:07;;;;;;;18.15;14.65;;;19.30;99.90;;;;;;5016124;28;20060;-77
2021/09/11 04:08:34;;;;;;;17.52;13.75;;;19.20;99.90;;;;;;5015924;28;20138;-77
2021/09/11 04:11:01;;;;;;;15.20;12.07;;;19.20;99.90;;;;;;5016092;28;20137;-76
2021/09/11 04:13:28;;;;;;;16.02;12.40;;;19.10;99.90;;;;;;5016819;28;20140;-77
2021/09/11 04:15:56;;;;;;;15.82;11.77;;;19.10;99.90;;;;;;5016563;28;20056;-78
2021/09/11 04:18:23;;;;;;;14.68;11.10;;;19.10;99.90;;;;;;5015554;28;20451;-78
2021/09/11 04:20:50;;;;;;;15.38;11.73;;;19.00;99.90;;;;;;5014941;28;20193;-77
2021/09/11 04:23:17;;;;;;;15.27;11.43;;;18.90;99.90;;;;;;5014725;28;20052;-77
2021/09/11 04:25:44;;;;;;;18.05;11.63;;;18.90;99.90;;;;;;5015117;28;20507;-75
2021/09/11 04:28:11;;;;;;;14.32;11.48;;;18.80;99.90;;;;;;5014898;28;20137;-77
2021/09/11 04:30:38;;;;;;;16.25;11.55;;;18.80;99.90;;;;;;5014525;28;20048;-77
2021/09/11 04:33:06;;;;;;;15.68;10.73;;;18.70;99.90;;;;;;5014475;28;20092;-77
2021/09/11 04:35:33;;;;;;;16.48;11.82;;;18.70;99.90;;;;;;5014591;28;20046;-77
2021/09/11 04:38:00;;;;;;;12.23;10.93;;;18.70;99.90;;;;;;5014328;28;20060;-76
2021/09/11 04:40:28;;;;;;;14.60;10.98;;;18.70;99.90;;;;;;5014585;28;20050;-76
2021/09/11 04:42:55;;;;;;;14.10;11.20;;;18.70;99.90;;;;;;5014217;28;20424;-75
2021/09/11 04:45:22;;;;;;;14.52;10.77;;;18.60;99.90;;;;;;5014325;28;20077;-77
2021/09/11 04:47:49;;;;;;;16.38;11.48;;;18.60;99.90;;;;;;5013313;28;20128;-78
2021/09/11 04:50:18;;;;;;;16.30;11.77;;;18.50;99.90;;;;;;5015340;28;20108;-79
2021/09/11 04:52:45;;;;;;;14.80;10.63;;;18.50;99.90;;;;;;5014565;28;20046;-78
2021/09/11 04:55:12;;;;;;;14.50;11.27;;;18.40;99.90;;;;;;5055980;23;20136;-77
2021/09/11 04:57:39;;;;;;;12.52;10.63;;;18.40;99.90;;;;;;5055793;28;20049;-78
2021/09/11 05:00:07;;;;;;;13.15;10.18;;;18.30;99.90;;;;;;5058089;28;20136;-77
2021/09/11 05:02:34;;;;;;;17.45;9.75;;;18.40;99.90;;;;;;5058181;28;20550;-78
2021/09/11 05:05:01;;;;;;;14.13;10.55;;;18.40;99.90;;;;;;5059005;28;20087;-78
2021/09/11 05:07:29;;;;;;;13.90;10.20;;;18.40;99.90;;;;;;5055515;28;20053;-77
2021/09/11 05:09:56;;;;;;;16.75;12.10;;;18.50;99.90;;;;;;5054239;28;20085;-77
2021/09/11 05:12:23;;;;;;;16.60;11.77;;;18.40;99.90;;;;;;5056688;28;20041;-78
2021/09/11 05:14:50;;;;;;;12.45;9.20;;;18.40;99.90;;;;;;5058901;28;20118;-78
2021/09/11 05:17:17;;;;;;;12.88;9.82;;;18.40;99.90;;;;;;5058895;28;20152;-78
2021/09/11 05:19:44;;;;;;;12.32;9.25;;;18.40;99.90;;;;;;5057719;28;20049;-78
2021/09/11 05:22:11;;;;;;;15.38;9.88;;;18.40;99.90;;;;;;5057356;28;20067;-78
2021/09/11 05:24:39;;;;;;;11.15;8.55;;;18.40;99.90;;;;;;5056645;28;20132;-78
2021/09/11 05:27:06;;;;;;;13.18;8.95;;;18.40;99.90;;;;;;5056549;28;20081;-77
2021/09/11 05:29:33;;;;;;;11.88;8.90;;;18.40;99.90;;;;;;5056116;28;20045;-78
2021/09/11 05:32:00;;;;;;;14.07;8.80;;;18.40;99.90;;;;;;5057481;28;20554;-78
2021/09/11 05:34:26;;;;;;;10.55;8.00;;;18.40;99.90;;;;;;5059601;28;20574;-78
2021/09/11 05:36:53;;;;;;;11.82;8.02;;;18.50;99.90;;;;;;5060088;28;20136;-79
2021/09/11 05:39:20;;;;;;;12.88;9.02;;;18.50;99.90;;;;;;5060236;28;20054;-78
2021/09/11 05:41:48;;;;;;;11.32;7.43;;;18.60;99.90;;;;;;5058604;28;20108;-78
2021/09/11 05:44:15;;;;;;;10.23;7.50;;;18.60;99.90;;;;;;5059175;28;20068;-78
2021/09/11 05:46:42;;;;;;;10.73;7.55;;;18.70;99.90;;;;;;5054452;28;20089;-77
2021/09/11 05:49:09;;;;;;;11.57;7.70;;;18.70;99.90;;;;;;5054683;28;20135;-78
2021/09/11 05:51:36;;;;;;;10.27;7.53;;;18.70;99.90;;;;;;5055246;28;20132;-79
2021/09/11 05:54:02;;;;;;;9.00;6.78;;;18.70;99.90;;;;;;5054954;28;20084;-77
2021/09/11 05:56:29;;;;;;;8.85;6.03;;;18.70;99.90;;;;;;5056270;28;20087;-79
2021/09/11 05:58:58;;;;;;;10.55;6.85;;;18.70;99.90;;;;;;5059829;28;20481;-78
2021/09/11 06:01:24;;;;;;;7.65;5.95;;;18.70;99.90;;;;;;5057993;28;20109;-78
2021/09/11 06:03:51;;;;;;;7.43;6.30;;;18.70;99.90;;;;;;5058488;28;20072;-78
2021/09/11 06:06:18;;;;;;;12.65;6.10;;;18.70;99.90;;;;;;5058997;28;20089;-78
2021/09/11 06:08:45;;;;;;;9.18;6.50;;;18.70;99.90;;;;;;5060003;28;20185;-79
2021/09/11 06:11:12;;;;;;;10.35;7.00;;;18.70;99.90;;;;;;5059510;28;20084;-78
2021/09/11 06:13:39;;;;;;;9.18;6.40;;;18.80;99.90;;;;;;5059237;28;20053;-78
2021/09/11 06:16:08;;;;;;;10.07;5.97;;;18.90;99.90;;;;;;5060410;28;20498;-78
2021/09/11 06:18:35;;;;;;;11.48;5.70;;;18.90;99.90;;;;;;5060117;28;20049;-79
2021/09/11 06:21:02;;;;;;;7.35;5.60;;;19.00;99.90;;;;;;5059405;28;20131;-78
2021/09/11 06:23:29;;;;;;;8.25;5.32;;;19.10;99.90;;;;;;5059117;28;20045;-78
2021/09/11 06:25:56;;;;;;;8.13;5.20;;;19.20;99.90;;;;;;5059935;28;20089;-78
2021/09/11 06:28:24;;;;;;;7.47;5.53;;;19.30;99.90;;;;;;5059769;28;20052;-79
2021/09/11 06:30:51;;;;;;;8.95;6.40;;;19.40;99.90;;;;;;5058094;28;20044;-79
2021/09/11 06:33:19;;;;;;;10.35;5.15;;;19.50;99.90;;;;;;5057278;28;20469;-79
2021/09/11 06:35:46;;;;;;;10.30;5.15;;;19.60;99.90;;;;;;5055265;28;20219;-78
2021/09/11 06:38:13;;;;;;;12.10;5.53;;;19.60;99.90;;;;;;5036796;28;20084;-78
2021/09/11 06:40:40;;;;;;;8.80;5.20;;;19.60;99.90;;;;;;5037376;28;20049;-78
2021/09/11 06:43:07;;;;;;;8.57;5.78;;;19.60;99.90;;;;;;5037857;28;20555;-78
2021/09/11 06:45:34;;;;;;;7.28;5.18;;;19.70;99.90;;;;;;5038960;28;20081;-77
2021/09/11 06:48:00;;;;;;;8.40;5.05;;;19.70;99.90;;;;;;5036995;28;20472;-79
2021/09/11 06:50:29;;;;;;;9.07;4.90;;;19.90;99.90;;;;;;5036159;28;20132;-78
2021/09/11 06:52:56;;;;;;;9.15;5.28;;;20.10;99.90;;;;;;5034988;28;20081;-77
2021/09/11 06:55:22;;;;;;;9.45;5.40;;;20.20;99.90;;;;;;5035042;28;20140;-78
2021/09/11 06:57:50;;;;;;;8.23;5.20;;;20.20;99.90;;;;;;5035994;28;20109;-78
2021/09/11 07:00:17;;;;;;;12.85;5.40;;;20.20;99.90;;;;;;5037147;28;20422;-78
2021/09/11 07:02:43;;;;;;;8.23;5.22;;;20.10;99.90;;;;;;5039444;28;20076;-78
2021/09/11 07:05:11;;;;;;;8.05;5.15;;;20.20;99.90;;;;;;5039363;28;20109;-78
2021/09/11 07:07:39;;;;;;;12.43;5.47;;;20.30;99.90;;;;;;5039795;28;20137;-79
2021/09/11 07:10:07;;;;;;;8.45;5.35;;;20.40;99.90;;;;;;5041046;28;20071;-79
2021/09/11 07:12:34;;;;;;;9.15;4.68;;;20.50;99.90;;;;;;5036445;28;20041;-78
2021/09/11 07:15:02;;;;;;;10.13;4.65;;;20.70;99.90;;;;;;5037629;28;20136;-78
2021/09/11 07:17:31;;;;;;;7.65;4.72;;;20.80;99.90;;;;;;5039949;28;20045;-79
2021/09/11 07:20:08;;;;;;;8.98;4.30;;;21.20;99.90;;;;;;5039636;28;20099;-79
2021/09/11 07:22:56;;;;;;;6.47;4.40;;;21.80;99.90;;;;;;5041744;28;20073;-79
2021/09/11 07:25:31;;;;;;;6.07;4.18;;;22.50;99.90;;;;;;5041994;28;20113;-79
2021/09/11 07:27:58;;;;;;;9.30;4.40;;;23.00;99.90;;;;;;5041615;28;20058;-80
2021/09/11 07:30:31;;;;;;;9.07;4.60;;;23.40;99.90;;;;;;5042533;28;20077;-81
2021/09/11 07:32:57;;;;;;;;;;;23.90;99.90;;;;;;5042886;28;20053;-79
2021/09/11 07:35:24;;;;;;;5.78;3.80;;;24.10;99.90;;;;;;5040232;28;19921;-79
2021/09/11 07:37:51;;;;;;;9.35;4.15;;;24.40;99.90;;;;;;5036682;28;20113;-79
2021/09/11 07:40:18;;;;;;;5.80;3.47;;;24.70;99.90;;;;;;5038137;28;20050;-78
2021/09/11 07:42:46;;;;;;;6.20;4.05;;;24.70;99.90;;;;;;5038412;28;20136;-79
2021/09/11 07:45:13;;;;;;;8.35;4.25;;;24.80;99.90;;;;;;5036914;28;20076;-80
2021/09/11 07:47:40;;;;;;;10.18;4.20;;;25.10;99.90;;;;;;5038800;28;20060;-79
2021/09/11 07:50:08;;;;;;;7.00;3.80;;;25.30;99.90;;;;;;5038306;28;20050;-80
2021/09/11 07:52:35;;;;;;;5.95;3.97;;;25.40;99.90;;;;;;5038769;28;20045;-79
2021/09/11 07:55:02;;;;;;;7.32;4.60;;;25.30;99.90;;;;;;5038887;28;20117;-79
2021/09/11 07:57:29;;;;;;;6.00;4.03;;;25.40;99.90;;;;;;5040555;28;20136;-80
2021/09/11 07:59:57;;;;;;;8.00;4.10;;;25.50;99.90;;;;;;5041707;28;20109;-79
2021/09/11 08:02:24;;;;;;;7.15;3.90;;;25.40;99.90;;;;;;5037659;28;20124;-79
2021/09/11 08:04:51;;;;;;;7.32;4.10;;;25.40;99.90;;;;;;5038078;28;20606;-80
2021/09/11 08:07:17;;;;;;;6.70;4.28;;;25.20;99.90;;;;;;5036689;28;20483;-80
2021/09/11 08:09:44;;;;;;;6.72;3.90;;;25.10;99.90;;;;;;5035995;28;20055;-79
2021/09/11 08:12:11;;;;;;;5.80;4.30;;;25.30;99.90;;;;;;5035499;28;20049;-80
2021/09/11 08:14:38;;;;;;;8.48;4.10;;;25.30;99.90;;;;;;5035728;28;20049;-79
2021/09/11 08:17:06;;;;;;;5.53;3.67;;;25.40;99.90;;;;;;5034968;28;20156;-79
2021/09/11 08:19:33;;;;;;;6.60;4.50;;;25.40;99.90;;;;;;5034923;28;20208;-79
2021/09/11 08:22:00;;;;;;;6.10;3.53;;;25.40;99.90;;;;;;5037336;28;20081;-79
2021/09/11 08:24:27;;;;;;;4.03;2.70;;;25.50;99.90;;;;;;5038512;28;20041;-79
2021/09/11 08:26:54;;;;;;;5.32;2.80;;;25.20;99.90;;;;;;5039171;28;20076;-80
2021/09/11 08:29:20;;;;;;;4.32;3.30;;;25.10;99.90;;;;;;5039950;28;20053;-80
2021/09/11 08:31:47;;;;;;;6.50;3.08;;;25.30;99.90;;;;;;5038980;28;20045;-80
2021/09/11 08:34:16;;;;;;;3.97;3.03;;;25.30;99.90;;;;;;5040333;28;20133;-80
2021/09/11 08:36:43;;;;;;;4.30;2.90;;;25.20;99.90;;;;;;5040307;28;20045;-79
2021/09/11 08:39:10;;;;;;;4.03;2.95;;;25.10;99.90;;;;;;5039990;28;20422;-80
2021/09/11 08:41:37;;;;;;;4.75;3.03;;;24.80;99.90;;;;;;5040058;28;20046;-80
2021/09/11 08:44:05;;;;;;;4.57;3.00;;;24.40;99.90;;;;;;5039708;28;20486;-80
2021/09/11 08:46:31;;;;;;;3.72;3.10;;;24.50;99.90;;;;;;5039269;28;20132;-80
2021/09/11 08:49:00;;;;;;;9.20;3.47;;;24.40;99.90;;;;;;5039610;28;20080;-80
2021/09/11 08:51:28;;;;;;;6.28;3.55;;;24.40;99.90;;;;;;5039401;28;20562;-80
2021/09/11 08:53:55;;;;;;;6.88;3.58;;;24.00;99.90;;;;;;5039649;28;20118;-80
2021/09/11 08:56:21;;;;;;;6.35;3.30;;;23.80;99.90;;;;;;5039698;28;20064;-80
2021/09/11 08:58:48;;;;;;;4.95;3.10;;;23.90;99.90;;;;;;5039223;28;20378;-79
2021/09/11 09:01:15;;;;;;;5.30;3.00;;;24.40;99.90;;;;;;5039037;28;20088;-80
2021/09/11 09:03:43;;;;;;;5.95;3.30;;;24.40;99.90;;;;;;5039925;28;20076;-78
2021/09/11 09:06:22;;;;;;;6.65;3.50;;;24.50;99.90;;;;;;5040322;28;20095;-79
2021/09/11 09:08:53;;;;;;;5.47;3.38;;;24.60;99.90;;;;;;5038875;28;20104;-79
2021/09/11 09:11:26;;;;;;;7.63;3.35;;;24.60;99.90;;;;;;5037983;28;20053;-79
2021/09/11 09:13:59;;;;;;;5.97;3.55;;;24.50;99.90;;;;;;5037815;28;20077;-78
2021/09/11 09:16:27;;;;;;;5.47;3.50;;;24.20;99.90;;;;;;5038618;28;20053;-80
2021/09/11 09:18:54;;;;;;;3.72;3.20;;;23.60;99.90;;;;;;5038088;28;20084;-79
2021/09/11 09:21:24;;;;;;;5.78;3.60;;;23.30;99.90;;;;;;5038937;28;20108;-79
2021/09/11 09:23:56;;;;;;;5.18;3.47;;;23.30;99.90;;;;;;5037307;28;20081;-78
2021/09/11 09:26:25;;;;;;;4.78;3.38;;;23.50;99.90;;;;;;5038062;28;20053;-78
2021/09/11 09:29:07;;;;;;;5.03;3.33;;;23.80;99.90;;;;;;5038455;28;20107;-79
2021/09/11 09:31:34;;;;;;;4.10;3.30;;;24.10;99.90;;;;;;5038360;28;20063;-79
2021/09/11 09:34:01;;;;;;;4.32;3.30;;;24.40;99.90;;;;;;5038374;28;20048;-79
2021/09/11 09:36:39;;;;;;;4.82;3.20;;;24.60;99.90;;;;;;5037469;28;20140;-79
2021/09/11 09:39:11;;;;;;;5.35;3.17;;;24.60;99.90;;;;;;5037018;28;20124;-79
2021/09/11 09:41:46;;;;;;;3.95;3.47;;;24.40;99.90;;;;;;5038174;28;20050;-79
2021/09/11 09:44:14;;;;;;;4.07;3.25;;;24.20;99.90;;;;;;5023618;28;20073;-79
2021/09/11 09:46:43;;;;;;;4.55;3.17;;;24.00;99.90;;;;;;5018533;28;20053;-78
2021/09/11 09:49:11;;;;;;;5.05;3.75;;;23.70;99.90;;;;;;5031786;28;20072;-79
2021/09/11 09:51:38;;;;;;;4.97;3.55;;;23.60;99.90;;;;;;5037130;28;20124;-81
2021/09/11 09:54:06;;;;;;;4.53;3.60;;;23.70;99.90;;;;;;5036825;28;20128;-79
2021/09/11 09:56:34;;;;;;;9.00;3.65;;;23.60;99.90;;;;;;5034560;28;20128;-78
2021/09/11 09:59:03;;;;;;;4.50;3.63;;;23.40;99.90;;;;;;5025946;28;20049;-77
2021/09/11 10:01:30;;;;;;;5.57;3.78;;;23.10;99.90;;;;;;5035470;28;20108;-78
2021/09/11 10:03:58;;;;;;;5.07;3.72;;;23.10;99.90;;;;;;5034765;28;20057;-77
2021/09/11 10:06:29;;;;;;;6.28;4.10;;;23.00;99.90;;;;;;5037374;28;20045;-78
2021/09/11 10:08:59;;;;;;;5.97;4.00;;;23.10;99.90;;;;;;5040508;28;20049;-78
2021/09/11 10:11:51;;;;;;;4.70;4.00;;;23.10;99.90;;;;;;5038242;28;20088;-80
2021/09/11 10:14:22;;;;;;;7.43;3.92;;;22.90;99.90;;;;;;5036302;28;20052;-79
2021/09/11 10:17:02;;;;;;;7.43;3.90;;;23.00;99.90;;;;;;5037081;28;20049;-80
2021/09/11 10:19:30;;;;;;;6.53;4.10;;;23.30;99.90;;;;;;5036223;28;20049;-80
2021/09/11 10:22:25;;;;;;;6.22;3.67;;;23.50;99.90;;;;;;5037422;28;20132;-78
2021/09/11 10:25:00;;;;;;;3.85;3.25;;;23.70;99.90;;;;;;5033391;28;20467;-79
2021/09/11 10:27:35;;;;;;;7.88;4.00;;;23.90;99.90;;;;;;5037429;28;20049;-80
2021/09/11 10:30:09;;;;;;;5.45;3.60;;;24.00;99.90;;;;;;5036539;28;20049;-79
2021/09/11 10:32:44;;;;;;;4.63;3.40;;;24.20;99.90;;;;;;5036280;28;20140;-79
2021/09/11 10:35:17;;;;;;;7.75;3.40;;;24.40;99.90;;;;;;5035596;28;20076;-79
2021/09/11 10:37:45;;;;;;;6.28;3.42;;;24.40;99.90;;;;;;5036574;28;20434;-78
2021/09/11 10:40:34;;;;;;;4.90;3.50;;;24.50;99.90;;;;;;5036513;28;20132;-78
2021/09/11 10:43:17;;;;;;;6.00;3.70;;;24.60;99.90;;;;;;5036377;28;20130;-79
2021/09/11 10:45:56;;;;;;;6.75;3.60;;;24.40;99.90;;;;;;5027588;28;20113;-77
2021/09/11 10:48:47;;;;;;;3.90;3.50;;;24.20;99.90;;;;;;5024659;28;20049;-78
2021/09/11 10:51:35;;;;;;;5.25;3.90;;;23.90;99.90;;;;;;5041201;28;20556;-78
2021/09/11 10:54:14;;;;;;;4.18;3.40;;;23.80;99.90;;;;;;5045838;23;20041;-76
2021/09/11 10:57:06;;;;;;;6.28;3.58;;;23.90;99.90;;;;;;5003287;28;20046;-77
2021/09/11 10:59:39;;;;;;;7.75;3.78;;;24.00;99.90;;;;;;4994372;28;20057;-78
2021/09/11 11:02:09;;;;;;;4.50;3.70;;;23.90;99.90;;;;;;4991262;28;20052;-77
2021/09/11 11:04:38;;;;;;;7.85;3.70;;;23.80;99.90;;;;;;4984649;28;20133;-78
2021/09/11 11:07:07;;;;;;;6.38;3.70;;;23.90;99.90;;;;;;4974401;28;20409;-78
2021/09/11 11:09:39;;;;;;;6.55;3.85;;;24.00;99.90;;;;;;4972903;28;20424;-79
2021/09/11 11:12:07;;;;;;;6.90;3.85;;;24.00;99.90;;;;;;4972933;28;20444;-79
2021/09/11 11:14:37;;;;;;;12.25;4.00;;;24.20;99.90;;;;;;4973233;28;20490;-77
2021/09/11 11:17:05;;;;;;;6.88;3.97;;;24.20;99.90;;;;;;4972987;28;20429;-78
2021/09/11 11:19:34;;;;;;;4.72;3.90;;;24.20;99.90;;;;;;4973671;28;20055;-79
2021/09/11 11:22:04;;;;;;;8.75;3.80;;;24.10;99.90;;;;;;4974158;28;20102;-79
2021/09/11 11:24:31;;;;;;;8.23;3.90;;;24.20;99.90;;;;;;4973733;28;20505;-79
2021/09/11 11:27:04;;;;;;;6.38;3.63;;;24.10;99.90;;;;;;4973297;28;20115;-80
2021/09/11 11:29:31;;;;;;;11.10;4.03;;;24.20;99.90;;;;;;4973612;28;20055;-79
2021/09/11 11:31:58;;;;;;;7.57;3.70;;;24.30;99.90;;;;;;4975356;28;20059;-78
2021/09/11 11:34:27;;;;;;;7.05;4.20;;;24.20;99.90;;;;;;4973492;28;20053;-78
2021/09/11 11:36:56;;;;;;;4.70;3.75;;;24.20;99.90;;;;;;4973410;28;20093;-79
2021/09/11 11:39:26;;;;;;;7.38;3.95;;;24.10;99.90;;;;;;4973538;28;20054;-79
2021/09/11 11:41:57;;;;;;;7.57;4.07;;;24.10;99.90;;;;;;4979953;28;20081;-80
2021/09/11 11:44:25;;;;;;;5.40;3.90;;;24.10;99.90;;;;;;4992973;28;20046;-79
2021/09/11 11:46:55;;;;;;;5.78;3.70;;;24.20;99.90;;;;;;4992695;28;20141;-78
2021/09/11 11:49:22;;;;;;;8.23;3.90;;;24.20;99.90;;;;;;4992972;28;20137;-80
2021/09/11 11:51:55;;;;;;;4.82;3.50;;;24.30;99.90;;;;;;4993762;28;20217;-80
2021/09/11 11:54:22;;;;;;;;;;;24.30;99.90;;;;;;4976128;28;20071;-79
2021/09/11 11:56:50;;;;;;;6.20;3.60;;;24.10;99.90;;;;;;4977713;28;19926;-81
2021/09/11 11:59:24;;;;;;;10.55;3.92;;;24.00;99.90;;;;;;4982540;28;20113;-81
2021/09/11 12:01:52;;;;;;;6.43;3.70;;;24.00;99.90;;;;;;4983036;28;20509;-80
2021/09/11 12:04:20;;;;;;;3.72;3.35;;;24.00;99.90;;;;;;4980987;28;20086;-80
2021/09/11 12:06:49;;;;;;;7.35;3.90;;;24.00;99.90;;;;;;4978762;28;20050;-80
2021/09/11 12:09:18;;;;;;;4.07;3.40;;;24.20;99.90;;;;;;4980121;28;20138;-79
2021/09/11 12:11:47;;;;;;;5.90;3.97;;;24.40;99.90;;;;;;4980035;28;20093;-81
2021/09/11 12:14:15;;;;;;;5.38;3.60;;;24.40;99.90;;;;;;4981008;28;20055;-81
2021/09/11 12:16:43;;;;;;;6.50;3.78;;;24.40;99.90;;;;;;4980335;28;20489;-80
2021/09/11 12:19:13;;;;;;;5.57;3.45;;;24.40;99.90;;;;;;4980122;28;20051;-79
2021/09/11 12:21:39;;;;;;;5.03;3.67;;;24.20;99.90;;;;;;4980337;28;20141;-81
2021/09/11 12:24:20;;;;;;;6.68;3.60;;;24.00;99.90;;;;;;4980082;28;20465;-80
2021/09/11 12:26:47;;;;;;;5.28;3.78;;;24.00;99.90;;;;;;4989738;28;20138;-82
2021/09/11 12:29:16;;;;;;;6.03;3.88;;;23.80;99.90;;;;;;4999895;28;20118;-79
2021/09/11 12:31:54;;;;;;;5.43;3.80;;;23.80;99.90;;;;;;4996648;28;20050;-79
2021/09/11 12:34:22;;;;;;;5.18;3.47;;;23.80;99.90;;;;;;4997408;28;20125;-80
2021/09/11 12:36:50;;;;;;;4.88;3.60;;;23.70;99.90;;;;;;4998275;28;20046;-79
2021/09/11 12:39:30;;;;;;;6.20;3.85;;;23.70;99.90;;;;;;5000177;28;20115;-80
2021/09/11 12:41:59;;;;;;;8.65;3.60;;;23.80;99.90;;;;;;4998523;28;20057;-79
2021/09/11 12:44:31;;;;;;;7.30;4.00;;;24.00;99.90;;;;;;4999879;28;20129;-80
2021/09/11 12:47:03;;;;;;;6.35;3.60;;;24.00;99.90;;;;;;4987735;28;20051;-79